Fuensalida, Spain
Current Conditions -  °F | °C
As of 10:00 AM on Sunday 26 Oct 2014 (Local Time) from LEGT Reporting Station
Clear Clear  
Wind Chill: 59°   Ceiling: Unl
Heat Index: 59°   Visibility: 6mi
Dew Point: 45°   Wind: 5mph
Humidity: 59%   Direction: 50°NE
Pressure: 30.24"   Gusts: NA
Location:  40.05°N, 4.21°W
Report Text: LEGT 260800Z 05004KT CAVOK 15/07 Q1024
Loading
Personal Weather Stations






























Interactive Weather Map
Tropical Storm Tracking
New forecast layout! Learn more

10-Day Weather Forecast

Advertisements
Track Severe Weather on mobile